createdAt,value
2017-01-09T00:00:32.205Z,1007.75
2017-01-09T00:01:32.230Z,1007.78
2017-01-09T00:02:32.257Z,1007.74
2017-01-09T00:03:32.284Z,1007.7
2017-01-09T00:04:32.311Z,1007.73
2017-01-09T00:05:32.332Z,1007.74
2017-01-09T00:06:32.365Z,1007.73
2017-01-09T00:07:32.393Z,1007.73
2017-01-09T00:08:32.418Z,1007.71
2017-01-09T00:09:32.443Z,1007.7
2017-01-09T00:10:32.467Z,1007.67
2017-01-09T00:11:32.492Z,1007.65
2017-01-09T00:12:32.524Z,1007.66
2017-01-09T00:13:32.549Z,1007.63
2017-01-09T00:14:32.578Z,1007.65
2017-01-09T00:15:32.599Z,1007.62
2017-01-09T00:16:32.632Z,1007.63
2017-01-09T00:17:32.656Z,1007.65
2017-01-09T00:18:32.685Z,1007.6
2017-01-09T00:19:32.710Z,1007.57
2017-01-09T00:20:32.738Z,1007.53
2017-01-09T00:21:32.763Z,1007.51
2017-01-09T00:22:32.792Z,1007.55
2017-01-09T00:23:32.817Z,1007.51
2017-01-09T00:24:32.845Z,1007.54
2017-01-09T00:25:32.871Z,1007.52
2017-01-09T00:26:32.889Z,1007.53
2017-01-09T00:27:32.923Z,1007.5
2017-01-09T00:28:32.952Z,1007.52
2017-01-09T00:29:32.977Z,1007.51
2017-01-09T00:30:33.006Z,1007.49
2017-01-09T00:31:33.026Z,1007.5
2017-01-09T00:32:33.056Z,1007.5
2017-01-09T00:33:33.084Z,1007.48
2017-01-09T00:34:33.104Z,1007.47
2017-01-09T00:35:33.137Z,1007.48
2017-01-09T00:36:33.158Z,1007.46
2017-01-09T00:37:33.190Z,1007.43
2017-01-09T00:38:33.215Z,1007.41
2017-01-09T00:39:33.245Z,1007.39
2017-01-09T00:40:33.269Z,1007.43
2017-01-09T00:41:33.298Z,1007.43
2017-01-09T00:42:33.323Z,1007.43
2017-01-09T00:43:33.353Z,1007.46
2017-01-09T00:44:33.375Z,1007.42
2017-01-09T00:45:33.404Z,1007.4
2017-01-09T00:46:33.429Z,1007.47
2017-01-09T00:47:33.458Z,1007.47
2017-01-09T00:48:33.482Z,1007.47
2017-01-09T00:49:33.511Z,1007.48
2017-01-09T00:50:33.536Z,1007.49
2017-01-09T00:51:33.565Z,1007.43
2017-01-09T00:52:33.585Z,1007.46
2017-01-09T00:53:33.618Z,1007.41
2017-01-09T00:54:33.643Z,1007.42
2017-01-09T00:55:33.667Z,1007.38
2017-01-09T00:56:33.696Z,1007.38
2017-01-09T00:57:33.725Z,1007.39
2017-01-09T00:58:33.750Z,1007.35
2017-01-09T00:59:33.775Z,1007.38
2017-01-09T01:00:33.803Z,1007.36
2017-01-09T01:01:33.836Z,1007.34
2017-01-09T01:02:33.856Z,1007.39
2017-01-09T01:03:33.882Z,1007.37
2017-01-09T01:04:33.910Z,1007.33
2017-01-09T01:05:33.939Z,1007.37
2017-01-09T01:06:33.964Z,1007.36
2017-01-09T01:07:33.988Z,1007.36
2017-01-09T01:08:34.021Z,1007.34
2017-01-09T01:09:34.046Z,1007.31
2017-01-09T01:10:34.070Z,1007.29
2017-01-09T01:11:34.095Z,1007.31
2017-01-09T01:12:34.124Z,1007.27
2017-01-09T01:13:34.145Z,1007.24
2017-01-09T01:14:34.180Z,1007.23
2017-01-09T01:15:34.202Z,1007.25
2017-01-09T01:16:34.232Z,1007.22
2017-01-09T01:17:34.256Z,1007.28
2017-01-09T01:18:34.284Z,1007.27
2017-01-09T01:19:34.309Z,1007.3
2017-01-09T01:20:34.337Z,1007.3
2017-01-09T01:21:34.362Z,1007.28
2017-01-09T01:22:34.390Z,1007.27
2017-01-09T01:23:34.418Z,1007.27
2017-01-09T01:24:34.440Z,1007.25
2017-01-09T01:25:34.470Z,1007.25
2017-01-09T01:26:34.498Z,1007.25
2017-01-09T01:27:34.524Z,1007.27
2017-01-09T01:28:34.547Z,1007.2
2017-01-09T01:29:34.580Z,1007.22
2017-01-09T01:30:34.605Z,1007.21
2017-01-09T01:31:34.630Z,1007.2
2017-01-09T01:32:34.654Z,1007.19
2017-01-09T01:33:34.683Z,1007.22
2017-01-09T01:34:34.719Z,1007.26
2017-01-09T01:35:34.736Z,1007.21
2017-01-09T01:36:34.767Z,1007.24
2017-01-09T01:37:34.790Z,1007.21
2017-01-09T01:38:34.818Z,1007.24
2017-01-09T01:39:34.844Z,1007.23
2017-01-09T01:40:34.868Z,1007.25
2017-01-09T01:41:34.897Z,1007.23
2017-01-09T01:42:34.922Z,1007.21
2017-01-09T01:43:34.949Z,1007.21
2017-01-09T01:44:34.987Z,1007.19
2017-01-09T01:45:35.003Z,1007.26
2017-01-09T01:46:35.035Z,1007.2
2017-01-09T01:47:35.057Z,1007.21
2017-01-09T01:48:35.086Z,1007.24
2017-01-09T01:49:35.111Z,1007.19
2017-01-09T01:50:35.135Z,1007.21
2017-01-09T01:51:35.164Z,1007.19
2017-01-09T01:52:35.193Z,1007.24
2017-01-09T01:53:35.217Z,1007.21
2017-01-09T01:54:35.241Z,1007.21
2017-01-09T01:55:35.270Z,1007.24
2017-01-09T01:56:35.295Z,1007.26
2017-01-09T01:57:35.324Z,1007.24
2017-01-09T01:58:35.349Z,1007.18
2017-01-09T01:59:35.377Z,1007.21
2017-01-09T02:00:35.402Z,1007.24
2017-01-09T02:01:35.431Z,1007.22
2017-01-09T02:02:35.455Z,1007.22
2017-01-09T02:03:35.484Z,1007.23
2017-01-09T02:04:35.515Z,1007.22
2017-01-09T02:05:35.538Z,1007.22
2017-01-09T02:06:35.562Z,1007.21
2017-01-09T02:07:35.592Z,1007.15
2017-01-09T02:08:35.623Z,1007.17
2017-01-09T02:09:35.645Z,1007.15
2017-01-09T02:10:35.679Z,1007.16
2017-01-09T02:11:35.698Z,1007.18
2017-01-09T02:12:35.722Z,1007.17
2017-01-09T02:13:35.752Z,1007.17
2017-01-09T02:14:35.783Z,1007.17
2017-01-09T02:15:35.805Z,1007.19
2017-01-09T02:16:35.830Z,1007.22
2017-01-09T02:17:35.858Z,1007.19
2017-01-09T02:18:35.887Z,1007.23
2017-01-09T02:19:35.911Z,1007.21
2017-01-09T02:20:35.936Z,1007.19
2017-01-09T02:21:35.961Z,1007.16
2017-01-09T02:22:35.992Z,1007.22
2017-01-09T02:23:36.015Z,1007.21
2017-01-09T02:24:36.043Z,1007.21
2017-01-09T02:25:36.067Z,1007.21
2017-01-09T02:26:36.097Z,1007.21
2017-01-09T02:27:36.126Z,1007.2
2017-01-09T02:28:36.150Z,1007.23
2017-01-09T02:29:36.179Z,1007.23
2017-01-09T02:30:36.204Z,1007.22
2017-01-09T02:31:36.232Z,1007.18
2017-01-09T02:32:36.271Z,1007.21
2017-01-09T02:33:36.286Z,1007.23
2017-01-09T02:34:36.311Z,1007.19
2017-01-09T02:35:36.335Z,1007.18
2017-01-09T02:36:36.363Z,1007.15
2017-01-09T02:37:36.389Z,1007.15
2017-01-09T02:38:36.415Z,1007.17
2017-01-09T02:39:36.442Z,1007.16
2017-01-09T02:40:36.471Z,1007.14
2017-01-09T02:41:36.496Z,1007.11
2017-01-09T02:42:36.524Z,1007.1
2017-01-09T02:43:36.549Z,1007.12
2017-01-09T02:44:36.587Z,1007.12
2017-01-09T02:45:36.602Z,1007.14
2017-01-09T02:46:36.631Z,1007.14
2017-01-09T02:47:36.656Z,1007.13
2017-01-09T02:48:36.685Z,1007.09
2017-01-09T02:49:36.709Z,1007.11
2017-01-09T02:50:36.738Z,1007.11
2017-01-09T02:51:36.764Z,1007.06
2017-01-09T02:52:36.791Z,1007.08
2017-01-09T02:53:36.815Z,1007.07
2017-01-09T02:54:36.844Z,1007.09
2017-01-09T02:55:36.869Z,1007.08
2017-01-09T02:56:36.898Z,1007.04
2017-01-09T02:57:36.922Z,1007.09
2017-01-09T02:58:36.951Z,1007.05
2017-01-09T02:59:36.977Z,1007.04
2017-01-09T03:00:36.999Z,1007.03
2017-01-09T03:01:37.028Z,1007.02
2017-01-09T03:02:37.057Z,1006.98
2017-01-09T03:03:37.078Z,1006.95
2017-01-09T03:04:37.111Z,1006.96
2017-01-09T03:05:37.135Z,1006.95
2017-01-09T03:06:37.159Z,1006.9
2017-01-09T03:07:37.188Z,1006.89
2017-01-09T03:08:37.217Z,1006.92
2017-01-09T03:09:37.242Z,1006.86
2017-01-09T03:10:37.279Z,1006.89
2017-01-09T03:11:37.295Z,1006.85
2017-01-09T03:12:37.324Z,1006.82
2017-01-09T03:13:37.349Z,1006.86
2017-01-09T03:14:37.373Z,1006.79
2017-01-09T03:15:37.453Z,1006.8
2017-01-09T03:16:37.430Z,1006.77
2017-01-09T03:17:37.457Z,1006.76
2017-01-09T03:18:37.484Z,1006.78
2017-01-09T03:19:37.508Z,1006.82
2017-01-09T03:20:37.537Z,1006.81
2017-01-09T03:21:37.561Z,1006.79
2017-01-09T03:22:37.590Z,1006.79
2017-01-09T03:23:37.615Z,1006.8
2017-01-09T03:24:37.644Z,1006.74
2017-01-09T03:25:37.669Z,1006.75
2017-01-09T03:26:37.698Z,1006.73
2017-01-09T03:27:37.722Z,1006.75
2017-01-09T03:28:37.746Z,1006.7
2017-01-09T03:29:37.776Z,1006.73
2017-01-09T03:30:37.804Z,1006.75
2017-01-09T03:31:37.829Z,1006.74
2017-01-09T03:32:37.854Z,1006.69
2017-01-09T03:33:37.880Z,1006.69
2017-01-09T03:34:37.911Z,1006.66
2017-01-09T03:35:37.936Z,1006.62
2017-01-09T03:36:37.965Z,1006.62
2017-01-09T03:37:37.990Z,1006.65
2017-01-09T03:38:38.019Z,1006.61
2017-01-09T03:39:38.043Z,1006.62
2017-01-09T03:40:38.068Z,1006.58
2017-01-09T03:41:38.097Z,1006.56
2017-01-09T03:42:38.125Z,1006.57
2017-01-09T03:43:38.149Z,1006.61
2017-01-09T03:44:38.175Z,1006.61
2017-01-09T03:45:38.203Z,1006.61
2017-01-09T03:46:38.232Z,1006.59
2017-01-09T03:47:38.256Z,1006.6
2017-01-09T03:48:38.281Z,1006.56
2017-01-09T03:49:38.308Z,1006.61
2017-01-09T03:50:38.336Z,1006.56
2017-01-09T03:51:38.364Z,1006.58
2017-01-09T03:52:38.389Z,1006.58
2017-01-09T03:53:38.417Z,1006.52
2017-01-09T03:54:38.447Z,1006.53
2017-01-09T03:55:38.470Z,1006.54
2017-01-09T03:56:38.496Z,1006.54
2017-01-09T03:57:38.524Z,1006.53
2017-01-09T03:58:38.549Z,1006.53
2017-01-09T03:59:38.578Z,1006.47
2017-01-09T04:00:38.603Z,1006.48
2017-01-09T04:01:38.631Z,1006.48
2017-01-09T04:02:38.657Z,1006.46
2017-01-09T04:03:38.685Z,1006.47
2017-01-09T04:04:38.710Z,1006.44
2017-01-09T04:05:38.739Z,1006.49
2017-01-09T04:06:38.767Z,1006.47
2017-01-09T04:07:38.792Z,1006.51
2017-01-09T04:08:38.817Z,1006.47
2017-01-09T04:09:38.846Z,1006.51
2017-01-09T04:10:38.871Z,1006.46
2017-01-09T04:11:38.899Z,1006.47
2017-01-09T04:12:38.924Z,1006.45
2017-01-09T04:13:38.952Z,1006.49
2017-01-09T04:14:38.977Z,1006.42
2017-01-09T04:15:39.006Z,1006.44
2017-01-09T04:16:39.031Z,1006.41
2017-01-09T04:17:39.060Z,1006.42
2017-01-09T04:18:39.085Z,1006.39
2017-01-09T04:19:39.112Z,1006.42
2017-01-09T04:20:39.138Z,1006.41
2017-01-09T04:21:39.167Z,1006.37
2017-01-09T04:22:39.199Z,1006.4
2017-01-09T04:23:39.220Z,1006.41
2017-01-09T04:24:39.245Z,1006.4
2017-01-09T04:25:39.274Z,1006.4
2017-01-09T04:26:39.299Z,1006.34
2017-01-09T04:27:39.328Z,1006.36
2017-01-09T04:28:39.355Z,1006.38
2017-01-09T04:29:39.381Z,1006.31
2017-01-09T04:30:39.406Z,1006.31
2017-01-09T04:31:39.434Z,1006.29
2017-01-09T04:32:39.459Z,1006.28
2017-01-09T04:33:39.487Z,1006.35
2017-01-09T04:34:39.513Z,1006.34
2017-01-09T04:35:39.542Z,1006.28
2017-01-09T04:36:39.565Z,1006.3
2017-01-09T04:37:39.593Z,1006.29
2017-01-09T04:38:39.620Z,1006.27
2017-01-09T04:39:39.646Z,1006.23
2017-01-09T04:40:39.673Z,1006.22
2017-01-09T04:41:39.702Z,1006.25
2017-01-09T04:42:39.723Z,1006.27
2017-01-09T04:43:39.752Z,1006.25
2017-01-09T04:44:39.781Z,1006.26
2017-01-09T04:45:39.805Z,1006.26
2017-01-09T04:46:39.837Z,1006.25
2017-01-09T04:47:39.858Z,1006.28
2017-01-09T04:48:39.887Z,1006.28
2017-01-09T04:49:39.912Z,1006.27
2017-01-09T04:50:39.947Z,1006.27
2017-01-09T04:51:39.966Z,1006.23
2017-01-09T04:52:39.990Z,1006.26
2017-01-09T04:53:40.023Z,1006.21
2017-01-09T04:54:40.048Z,1006.22
2017-01-09T04:55:40.077Z,1006.26
2017-01-09T04:56:40.107Z,1006.29
2017-01-09T04:57:40.125Z,1006.27
2017-01-09T04:58:40.155Z,1006.29
2017-01-09T04:59:40.184Z,1006.28
2017-01-09T05:00:40.209Z,1006.27
2017-01-09T05:01:40.232Z,1006.23
2017-01-09T05:02:40.263Z,1006.22
2017-01-09T05:03:40.287Z,1006.26
2017-01-09T05:04:40.315Z,1006.25
2017-01-09T05:05:40.344Z,1006.26
2017-01-09T05:06:40.369Z,1006.23
2017-01-09T05:07:40.393Z,1006.25
2017-01-09T05:08:40.422Z,1006.21
2017-01-09T05:09:40.451Z,1006.25
2017-01-09T05:10:40.476Z,1006.24
2017-01-09T05:11:40.506Z,1006.22
2017-01-09T05:12:40.528Z,1006.28
2017-01-09T05:13:40.559Z,1006.24
2017-01-09T05:14:40.587Z,1006.24
2017-01-09T05:15:40.608Z,1006.18
2017-01-09T05:16:40.643Z,1006.21
2017-01-09T05:17:40.665Z,1006.23
2017-01-09T05:18:40.701Z,1006.22
2017-01-09T05:19:40.711Z,1006.22
2017-01-09T05:20:40.743Z,1006.24
2017-01-09T05:21:40.768Z,1006.24
2017-01-09T05:22:40.799Z,1006.17
2017-01-09T05:23:40.822Z,1006.14
2017-01-09T05:24:40.851Z,1006.18
2017-01-09T05:25:40.875Z,1006.14
2017-01-09T05:26:40.908Z,1006.11
2017-01-09T05:27:40.929Z,1006.13
2017-01-09T05:28:40.958Z,1006.08
2017-01-09T05:29:40.983Z,1006.12
2017-01-09T05:30:41.012Z,1006.07
2017-01-09T05:31:41.036Z,1006.1
2017-01-09T05:32:41.067Z,1006.07
2017-01-09T05:33:41.088Z,1006.04
2017-01-09T05:34:41.117Z,1006.05
2017-01-09T05:35:41.142Z,1006.04
2017-01-09T05:36:41.167Z,1006.05
2017-01-09T05:37:41.196Z,1006.03
2017-01-09T05:38:41.225Z,1006.03
2017-01-09T05:39:41.250Z,1005.98
2017-01-09T05:40:41.278Z,1006.01
2017-01-09T05:41:41.303Z,1006.03
2017-01-09T05:42:41.332Z,1006
2017-01-09T05:43:41.356Z,1005.99
2017-01-09T05:44:41.385Z,1005.99
2017-01-09T05:45:41.410Z,1005.98
2017-01-09T05:46:41.439Z,1005.99
2017-01-09T05:47:41.464Z,1006.02
2017-01-09T05:48:41.492Z,1005.97
2017-01-09T05:49:41.516Z,1005.98
2017-01-09T05:50:41.543Z,1005.97
2017-01-09T05:51:41.570Z,1005.98
2017-01-09T05:52:41.599Z,1005.97
2017-01-09T05:53:41.624Z,1006
2017-01-09T05:54:41.653Z,1005.95
2017-01-09T05:55:41.678Z,1005.95
2017-01-09T05:56:41.706Z,1005.96
2017-01-09T05:57:41.731Z,1005.98
2017-01-09T05:58:41.755Z,1005.93
2017-01-09T05:59:41.784Z,1005.95
2017-01-09T06:00:41.816Z,1005.94
2017-01-09T06:01:41.838Z,1005.91
2017-01-09T06:02:41.862Z,1005.87
2017-01-09T06:03:41.895Z,1005.89
2017-01-09T06:04:41.920Z,1005.9
2017-01-09T06:05:41.945Z,1005.86
2017-01-09T06:06:41.979Z,1005.85
2017-01-09T06:07:42.000Z,1005.83
2017-01-09T06:08:42.027Z,1005.82
2017-01-09T06:09:42.052Z,1005.8
2017-01-09T06:10:42.080Z,1005.78
2017-01-09T06:11:42.107Z,1005.78
2017-01-09T06:12:42.139Z,1005.68
2017-01-09T06:13:42.158Z,1005.64
2017-01-09T06:14:42.187Z,1005.63
2017-01-09T06:15:42.212Z,1005.6
2017-01-09T06:16:42.237Z,1005.59
2017-01-09T06:17:42.266Z,1005.53
2017-01-09T06:18:42.294Z,1005.53
2017-01-09T06:19:42.319Z,1005.52
2017-01-09T06:20:42.348Z,1005.5
2017-01-09T06:21:42.373Z,1005.49
2017-01-09T06:22:42.401Z,1005.49
2017-01-09T06:23:42.426Z,1005.47
2017-01-09T06:24:42.455Z,1005.47
2017-01-09T06:25:42.480Z,1005.49
2017-01-09T06:26:42.512Z,1005.43
2017-01-09T06:27:42.529Z,1005.43
2017-01-09T06:28:42.567Z,1005.43
2017-01-09T06:29:42.586Z,1005.43
2017-01-09T06:30:42.615Z,1005.42
2017-01-09T06:31:42.639Z,1005.42
2017-01-09T06:32:42.671Z,1005.41
2017-01-09T06:33:42.697Z,1005.38
2017-01-09T06:34:42.735Z,1005.35
2017-01-09T06:35:42.747Z,1005.38
2017-01-09T06:36:42.776Z,1005.35
2017-01-09T06:37:42.804Z,1005.37
2017-01-09T06:38:42.829Z,1005.36
2017-01-09T06:39:42.857Z,1005.35
2017-01-09T06:40:42.882Z,1005.39
2017-01-09T06:41:42.909Z,1005.4
2017-01-09T06:42:42.943Z,1005.42
2017-01-09T06:43:42.964Z,1005.38
2017-01-09T06:44:42.999Z,1005.42
2017-01-09T06:45:43.013Z,1005.36
2017-01-09T06:46:43.042Z,1005.37
2017-01-09T06:47:43.071Z,1005.37
2017-01-09T06:48:43.099Z,1005.42
2017-01-09T06:49:43.125Z,1005.38
2017-01-09T06:50:43.150Z,1005.39
2017-01-09T06:51:43.179Z,1005.43
2017-01-09T06:52:43.202Z,1005.38
2017-01-09T06:53:43.236Z,1005.4
2017-01-09T06:54:43.260Z,1005.38
2017-01-09T06:55:43.285Z,1005.4
2017-01-09T06:56:43.310Z,1005.39
2017-01-09T06:57:43.339Z,1005.4
2017-01-09T06:58:43.362Z,1005.37
2017-01-09T06:59:43.392Z,1005.35
2017-01-09T07:00:43.423Z,1005.35
2017-01-09T07:01:43.445Z,1005.36
2017-01-09T07:02:43.483Z,1005.34
2017-01-09T07:03:43.499Z,1005.38
2017-01-09T07:04:43.524Z,1005.39
2017-01-09T07:05:43.552Z,1005.37
2017-01-09T07:06:43.581Z,1005.38
2017-01-09T07:07:43.606Z,1005.41
2017-01-09T07:08:43.647Z,1005.46
2017-01-09T07:09:43.659Z,1005.46
2017-01-09T07:10:43.688Z,1005.45
2017-01-09T07:11:43.712Z,1005.44
2017-01-09T07:12:43.737Z,1005.4
2017-01-09T07:13:43.766Z,1005.41
2017-01-09T07:14:43.796Z,1005.43
2017-01-09T07:15:43.820Z,1005.43
2017-01-09T07:16:43.852Z,1005.47
2017-01-09T07:17:43.872Z,1005.43
2017-01-09T07:18:43.914Z,1005.4
2017-01-09T07:19:43.922Z,1005.43
2017-01-09T07:20:43.958Z,1005.37
2017-01-09T07:21:43.984Z,1005.4
2017-01-09T07:22:44.015Z,1005.35
2017-01-09T07:23:44.033Z,1005.38
2017-01-09T07:24:44.061Z,1005.38
2017-01-09T07:25:44.090Z,1005.43
2017-01-09T07:26:44.114Z,1005.43
2017-01-09T07:27:44.143Z,1005.4
2017-01-09T07:28:44.168Z,1005.42
2017-01-09T07:29:44.197Z,1005.37
2017-01-09T07:30:44.222Z,1005.35
2017-01-09T07:31:44.250Z,1005.36
2017-01-09T07:32:44.275Z,1005.35
2017-01-09T07:33:44.304Z,1005.41
2017-01-09T07:34:44.329Z,1005.39
2017-01-09T07:35:44.357Z,1005.39
2017-01-09T07:36:44.381Z,1005.37
2017-01-09T07:37:44.410Z,1005.39
2017-01-09T07:38:44.435Z,1005.38
2017-01-09T07:39:44.463Z,1005.41
2017-01-09T07:40:44.495Z,1005.44
2017-01-09T07:41:44.517Z,1005.43
2017-01-09T07:42:44.542Z,1005.45
2017-01-09T07:43:44.572Z,1005.46
2017-01-09T07:44:44.595Z,1005.45
2017-01-09T07:45:44.623Z,1005.52
2017-01-09T07:46:44.649Z,1005.45
2017-01-09T07:47:44.677Z,1005.45
2017-01-09T07:48:44.702Z,1005.4
2017-01-09T07:49:44.731Z,1005.38
2017-01-09T07:50:44.763Z,1005.39
2017-01-09T07:51:44.785Z,1005.44
2017-01-09T07:52:44.809Z,1005.42
2017-01-09T07:53:44.838Z,1005.42
2017-01-09T07:54:44.863Z,1005.41
2017-01-09T07:55:44.887Z,1005.42
2017-01-09T07:56:44.911Z,1005.42
2017-01-09T07:57:44.944Z,1005.5
2017-01-09T07:58:44.969Z,1005.5
2017-01-09T07:59:44.998Z,1005.49
2017-01-09T08:00:45.024Z,1005.43
2017-01-09T08:01:45.055Z,1005.45
2017-01-09T08:02:45.089Z,1005.37
2017-01-09T08:03:45.105Z,1005.4
2017-01-09T08:04:45.133Z,1005.38
2017-01-09T08:05:45.158Z,1005.43
2017-01-09T08:06:45.187Z,1005.42
2017-01-09T08:07:45.212Z,1005.45
2017-01-09T08:08:45.240Z,1005.4
2017-01-09T08:09:45.265Z,1005.42
2017-01-09T08:10:45.294Z,1005.41
2017-01-09T08:11:45.315Z,1005.39
2017-01-09T08:12:45.348Z,1005.38
2017-01-09T08:13:45.373Z,1005.38
2017-01-09T08:14:45.403Z,1005.39
2017-01-09T08:15:45.425Z,1005.44
2017-01-09T08:16:45.454Z,1005.42
2017-01-09T08:17:45.478Z,1005.4
2017-01-09T08:18:45.507Z,1005.45
2017-01-09T08:19:45.537Z,1005.42
2017-01-09T08:20:45.560Z,1005.4
2017-01-09T08:21:45.586Z,1005.44
2017-01-09T08:22:45.615Z,1005.39
2017-01-09T08:23:45.640Z,1005.4
2017-01-09T08:24:45.668Z,1005.38
2017-01-09T08:25:45.691Z,1005.44
2017-01-09T08:26:45.721Z,1005.42
2017-01-09T08:27:45.746Z,1005.4
2017-01-09T08:28:45.774Z,1005.37
2017-01-09T08:29:45.799Z,1005.34
2017-01-09T08:30:45.828Z,1005.3
2017-01-09T08:31:45.854Z,1005.3
2017-01-09T08:32:45.877Z,1005.35
2017-01-09T08:33:45.906Z,1005.34
2017-01-09T08:34:45.939Z,1005.34
2017-01-09T08:35:45.959Z,1005.39
2017-01-09T08:36:45.993Z,1005.33
2017-01-09T08:37:46.020Z,1005.35
2017-01-09T08:38:46.042Z,1005.36
2017-01-09T08:39:46.066Z,1005.32
2017-01-09T08:40:46.103Z,1005.32
2017-01-09T08:41:46.122Z,1005.29
2017-01-09T08:42:46.144Z,1005.28
2017-01-09T08:43:46.173Z,1005.28
2017-01-09T08:44:46.202Z,1005.28
2017-01-09T08:45:46.227Z,1005.28
2017-01-09T08:46:46.263Z,1005.31
2017-01-09T08:47:46.280Z,1005.33
2017-01-09T08:48:46.305Z,1005.28
2017-01-09T08:49:46.341Z,1005.3
2017-01-09T08:50:46.362Z,1005.31
2017-01-09T08:51:46.391Z,1005.31
2017-01-09T08:52:46.416Z,1005.27
2017-01-09T08:53:46.445Z,1005.3
2017-01-09T08:54:46.469Z,1005.24
2017-01-09T08:55:46.509Z,1005.23
2017-01-09T08:56:46.526Z,1005.25
2017-01-09T08:57:46.551Z,1005.17
2017-01-09T08:58:46.579Z,1005.18
2017-01-09T08:59:46.610Z,1005.16
2017-01-09T09:00:46.643Z,1005.16
2017-01-09T09:01:46.659Z,1005.14
2017-01-09T09:02:46.684Z,1005.14
2017-01-09T09:03:46.708Z,1005.12
2017-01-09T09:04:46.740Z,1005.12
2017-01-09T09:05:46.765Z,1005.09
2017-01-09T09:06:46.789Z,1005.1
2017-01-09T09:07:46.818Z,1005.1
2017-01-09T09:08:46.839Z,1005.1
2017-01-09T09:09:46.872Z,1005.07
2017-01-09T09:10:46.901Z,1005.09
2017-01-09T09:11:46.926Z,1005.04
2017-01-09T09:12:46.954Z,1005.03
2017-01-09T09:13:46.978Z,1005.02
2017-01-09T09:14:47.008Z,1004.99
2017-01-09T09:15:47.032Z,1004.98
2017-01-09T09:16:47.058Z,1004.99
2017-01-09T09:17:47.086Z,1004.99
2017-01-09T09:18:47.115Z,1004.99
2017-01-09T09:19:47.140Z,1004.96
2017-01-09T09:20:47.168Z,1004.94
2017-01-09T09:21:47.193Z,1004.98
2017-01-09T09:22:47.222Z,1004.93
2017-01-09T09:23:47.247Z,1004.96
2017-01-09T09:24:47.275Z,1004.98
2017-01-09T09:25:47.300Z,1005.03
2017-01-09T09:26:47.328Z,1004.98
2017-01-09T09:27:47.358Z,1005.01
2017-01-09T09:28:47.391Z,1005.01
2017-01-09T09:29:47.407Z,1005.01
2017-01-09T09:30:47.436Z,1005.01
2017-01-09T09:31:47.465Z,1004.98
2017-01-09T09:32:47.496Z,1004.98
2017-01-09T09:33:47.519Z,1004.94
2017-01-09T09:34:47.542Z,1004.99
2017-01-09T09:35:47.571Z,1004.96
2017-01-09T09:36:47.601Z,1004.99
2017-01-09T09:37:47.621Z,1004.97
2017-01-09T09:38:47.650Z,1004.97
2017-01-09T09:39:47.678Z,1004.96
2017-01-09T09:40:47.703Z,1004.98
2017-01-09T09:41:47.726Z,1004.94
2017-01-09T09:42:47.756Z,1004.95
2017-01-09T09:43:47.790Z,1004.92
2017-01-09T09:44:47.820Z,1004.88
2017-01-09T09:45:47.838Z,1004.84
2017-01-09T09:46:47.868Z,1004.84
2017-01-09T09:47:47.896Z,1004.83
2017-01-09T09:48:47.927Z,1004.84
2017-01-09T09:49:47.950Z,1004.87
2017-01-09T09:50:47.973Z,1004.89
2017-01-09T09:51:48.003Z,1004.88
2017-01-09T09:52:48.024Z,1004.9
2017-01-09T09:53:48.053Z,1004.87
2017-01-09T09:54:48.082Z,1004.88
2017-01-09T09:55:48.111Z,1004.89
2017-01-09T09:56:48.143Z,1004.87
2017-01-09T09:57:48.164Z,1004.86
2017-01-09T09:58:48.199Z,1004.9
2017-01-09T09:59:48.217Z,1004.83
2017-01-09T10:00:48.242Z,1004.82
2017-01-09T10:01:48.271Z,1004.82
2017-01-09T10:02:48.299Z,1004.77
2017-01-09T10:03:48.324Z,1004.79
2017-01-09T10:04:48.353Z,1004.73
2017-01-09T10:05:48.382Z,1004.74
2017-01-09T10:06:48.407Z,1004.74
2017-01-09T10:07:48.436Z,1004.74
2017-01-09T10:08:48.460Z,1004.7
2017-01-09T10:09:48.487Z,1004.72
2017-01-09T10:10:48.513Z,1004.7
2017-01-09T10:11:48.542Z,1004.71
2017-01-09T10:12:48.566Z,1004.68
2017-01-09T10:13:48.596Z,1004.72
2017-01-09T10:14:48.616Z,1004.65
2017-01-09T10:15:48.651Z,1004.64
2017-01-09T10:16:48.674Z,1004.61
2017-01-09T10:17:48.704Z,1004.59
2017-01-09T10:18:48.726Z,1004.62
2017-01-09T10:19:48.757Z,1004.61
2017-01-09T10:20:48.785Z,1004.59
2017-01-09T10:21:48.805Z,1004.61
2017-01-09T10:22:48.834Z,1004.63
2017-01-09T10:23:48.859Z,1004.63
2017-01-09T10:24:48.892Z,1004.65
2017-01-09T10:25:48.917Z,1004.63
2017-01-09T10:26:48.942Z,1004.63
2017-01-09T10:27:48.971Z,1004.64
2017-01-09T10:28:48.999Z,1004.66
2017-01-09T10:29:49.021Z,1004.65
2017-01-09T10:30:49.053Z,1004.71
2017-01-09T10:31:49.077Z,1004.67
2017-01-09T10:32:49.106Z,1004.67
2017-01-09T10:33:49.135Z,1004.62
2017-01-09T10:34:49.160Z,1004.58
2017-01-09T10:35:49.188Z,1004.56
2017-01-09T10:36:49.209Z,1004.57
2017-01-09T10:37:49.238Z,1004.56
2017-01-09T10:38:49.267Z,1004.49
2017-01-09T10:39:49.296Z,1004.46
2017-01-09T10:40:49.320Z,1004.45
2017-01-09T10:41:49.349Z,1004.47
2017-01-09T10:42:49.383Z,1004.42
2017-01-09T10:43:49.403Z,1004.41
2017-01-09T10:44:49.431Z,1004.4
2017-01-09T10:45:49.456Z,1004.38
2017-01-09T10:46:49.485Z,1004.36
2017-01-09T10:47:49.512Z,1004.37
2017-01-09T10:48:49.537Z,1004.34
2017-01-09T10:49:49.563Z,1004.32
2017-01-09T10:50:49.592Z,1004.29
2017-01-09T10:51:49.613Z,1004.28
2017-01-09T10:52:49.641Z,1004.34
2017-01-09T10:53:49.674Z,1004.31
2017-01-09T10:54:49.695Z,1004.25
2017-01-09T10:55:49.728Z,1004.3
2017-01-09T10:56:49.753Z,1004.28
2017-01-09T10:57:49.778Z,1004.32
2017-01-09T10:58:49.805Z,1004.33
2017-01-09T10:59:49.840Z,1004.3
2017-01-09T11:00:49.855Z,1004.31
2017-01-09T11:01:49.888Z,1004.28
2017-01-09T11:02:49.909Z,1004.24
2017-01-09T11:03:49.941Z,1004.24
2017-01-09T11:04:49.967Z,1004.21
2017-01-09T11:05:49.993Z,1004.16
2017-01-09T11:06:50.024Z,1004.15
2017-01-09T11:07:50.047Z,1004.13
2017-01-09T11:08:50.073Z,1004.11
2017-01-09T11:09:50.102Z,1004.08
2017-01-09T11:10:50.127Z,1004.02
2017-01-09T11:11:50.154Z,1004.03
2017-01-09T11:12:50.184Z,1003.99
2017-01-09T11:13:50.211Z,1003.97
2017-01-09T11:14:50.238Z,1003.89
2017-01-09T11:15:50.267Z,1003.87
2017-01-09T11:16:50.291Z,1003.89
2017-01-09T11:17:50.320Z,1003.86
2017-01-09T11:18:50.350Z,1003.88
2017-01-09T11:19:50.374Z,1003.9
2017-01-09T11:20:50.402Z,1003.9
2017-01-09T11:21:50.424Z,1003.9
2017-01-09T11:22:50.456Z,1003.86
2017-01-09T11:23:50.481Z,1003.87
2017-01-09T11:24:50.506Z,1003.86
2017-01-09T11:25:50.534Z,1003.84
2017-01-09T11:26:50.560Z,1003.83
2017-01-09T11:27:50.588Z,1003.85
2017-01-09T11:28:50.613Z,1003.82
2017-01-09T11:29:50.645Z,1003.78
2017-01-09T11:30:50.669Z,1003.78
2017-01-09T11:31:50.699Z,1003.78
2017-01-09T11:32:50.722Z,1003.77
2017-01-09T11:33:50.752Z,1003.65
2017-01-09T11:34:50.777Z,1003.64
2017-01-09T11:35:50.805Z,1003.64
2017-01-09T11:36:50.830Z,1003.62
2017-01-09T11:37:50.864Z,1003.55
2017-01-09T11:38:50.884Z,1003.56
2017-01-09T11:39:50.913Z,1003.51
2017-01-09T11:40:50.941Z,1003.53
2017-01-09T11:41:50.966Z,1003.48
2017-01-09T11:42:50.989Z,1003.39
2017-01-09T11:43:51.020Z,1003.39
2017-01-09T11:44:51.045Z,1003.34
2017-01-09T11:45:51.073Z,1003.29
2017-01-09T11:46:51.102Z,1003.26
2017-01-09T11:47:51.122Z,1003.25
2017-01-09T11:48:51.155Z,1003.26
2017-01-09T11:49:51.176Z,1003.23
2017-01-09T11:50:51.208Z,1003.26
2017-01-09T11:51:51.237Z,1003.28
2017-01-09T11:52:51.262Z,1003.28
2017-01-09T11:53:51.288Z,1003.24
2017-01-09T11:54:51.311Z,1003.22
2017-01-09T11:55:51.340Z,1003.21
2017-01-09T11:56:51.369Z,1003.18
2017-01-09T11:57:51.393Z,1003.21
2017-01-09T11:58:51.417Z,1003.18
2017-01-09T11:59:51.446Z,1003.17
2017-01-09T12:00:51.475Z,1003.13
2017-01-09T12:01:51.499Z,1003.13
2017-01-09T12:02:51.531Z,1003.1
2017-01-09T12:03:51.552Z,1003.11
2017-01-09T12:04:51.585Z,1003.04
2017-01-09T12:05:51.605Z,1003.09
2017-01-09T12:06:51.634Z,1003.01
2017-01-09T12:07:51.663Z,1002.99